createdAt,value
2023-04-07T00:01:26.234Z,8.68
2023-04-07T00:03:34.017Z,8.80
2023-04-07T00:05:39.336Z,9.05
2023-04-07T00:07:52.980Z,8.63
2023-04-07T00:10:01.310Z,8.15
2023-04-07T00:12:07.355Z,8.50
2023-04-07T00:14:12.399Z,9.05
2023-04-07T00:16:17.983Z,9.18
2023-04-07T00:18:23.023Z,8.55
2023-04-07T00:20:30.850Z,8.63
2023-04-07T00:22:36.385Z,8.52
2023-04-07T00:24:41.384Z,8.70
2023-04-07T00:26:46.667Z,8.95
2023-04-07T00:28:52.231Z,8.60
2023-04-07T00:30:57.525Z,8.32
2023-04-07T00:33:03.038Z,8.70
2023-04-07T00:35:09.427Z,9.88
2023-04-07T00:37:17.496Z,9.60
2023-04-07T00:39:23.048Z,9.07
2023-04-07T00:41:28.680Z,9.00
2023-04-07T00:43:33.765Z,8.93
2023-04-07T00:45:40.424Z,9.07
2023-04-07T00:47:46.296Z,8.60
2023-04-07T00:49:51.605Z,8.80
2023-04-07T00:51:57.668Z,9.18
2023-04-07T00:54:05.666Z,7.30
2023-04-07T00:56:11.373Z,7.18
2023-04-07T00:58:16.983Z,8.32
2023-04-07T01:00:22.846Z,7.28
2023-04-07T01:02:37.117Z,5.60
2023-04-07T01:04:50.171Z,5.65
2023-04-07T01:07:00.042Z,5.35
2023-04-07T01:09:22.242Z,6.82
2023-04-07T01:11:33.454Z,5.63
2023-04-07T01:13:46.110Z,5.22
2023-04-07T01:16:01.202Z,5.30
2023-04-07T01:18:18.400Z,5.00
2023-04-07T01:20:29.673Z,5.07
2023-04-07T01:22:46.546Z,5.30
2023-04-07T01:26:11.305Z,5.70
2023-04-07T01:28:47.691Z,5.78
2023-04-07T01:30:59.707Z,6.40
2023-04-07T01:33:07.550Z,6.25
2023-04-07T01:35:16.650Z,7.30
2023-04-07T01:37:23.180Z,6.25
2023-04-07T01:39:29.901Z,6.85
2023-04-07T01:41:36.390Z,6.90
2023-04-07T01:43:45.120Z,7.57
2023-04-07T01:45:51.605Z,7.82
2023-04-07T01:48:00.367Z,7.50
2023-04-07T01:50:07.240Z,8.15
2023-04-07T01:52:14.178Z,8.07
2023-04-07T01:54:20.528Z,7.85
2023-04-07T01:56:25.790Z,7.78
2023-04-07T01:58:32.879Z,8.50
2023-04-07T02:00:38.239Z,8.50
2023-04-07T02:02:53.568Z,8.05
2023-04-07T02:05:07.932Z,7.57
2023-04-07T02:07:22.599Z,7.93
2023-04-07T02:09:32.912Z,8.35
2023-04-07T02:11:38.877Z,8.80
2023-04-07T02:13:45.417Z,8.32
2023-04-07T02:15:52.907Z,8.82
2023-04-07T02:18:02.348Z,8.75
2023-04-07T02:20:12.846Z,8.88
2023-04-07T02:22:19.222Z,8.93
2023-04-07T02:24:25.283Z,8.85
2023-04-07T02:26:30.696Z,9.20
2023-04-07T02:28:36.675Z,8.80
2023-04-07T02:30:42.067Z,9.48
2023-04-07T02:32:47.215Z,9.65
2023-04-07T02:34:52.919Z,9.35
2023-04-07T02:37:01.012Z,9.02
2023-04-07T02:39:06.820Z,9.80
2023-04-07T02:41:11.862Z,10.07
2023-04-07T02:43:19.208Z,9.38
2023-04-07T02:45:24.490Z,9.45
2023-04-07T02:47:29.526Z,9.80
2023-04-07T02:49:34.852Z,9.38
2023-04-07T02:51:39.868Z,9.45
2023-04-07T02:53:47.470Z,9.52
2023-04-07T02:55:52.610Z,9.43
2023-04-07T02:57:57.668Z,9.25
2023-04-07T03:00:17.964Z,9.13
2023-04-07T03:02:38.679Z,8.68
2023-04-07T03:04:45.722Z,9.60
2023-04-07T03:06:51.120Z,9.20
2023-04-07T03:08:58.735Z,8.77
2023-04-07T03:11:04.086Z,8.52
2023-04-07T03:13:10.575Z,8.30
2023-04-07T03:15:18.757Z,9.35
2023-04-07T03:17:25.956Z,8.48
2023-04-07T03:19:31.166Z,7.85
2023-04-07T03:21:36.305Z,8.63
2023-04-07T03:23:41.910Z,9.18
2023-04-07T03:25:49.898Z,9.20
2023-04-07T03:27:55.290Z,8.80
2023-04-07T03:30:01.473Z,8.68
2023-04-07T03:32:07.491Z,8.65
2023-04-07T03:34:12.876Z,8.52
2023-04-07T03:36:18.048Z,10.23
2023-04-07T03:38:24.563Z,9.73
2023-04-07T03:40:36.142Z,9.55
2023-04-07T03:42:43.834Z,9.07
2023-04-07T03:44:51.608Z,8.77
2023-04-07T03:46:56.660Z,9.43
2023-04-07T03:49:03.109Z,9.32
2023-04-07T03:51:10.794Z,9.25
2023-04-07T03:53:16.981Z,8.65
2023-04-07T03:55:23.173Z,9.07
2023-04-07T03:57:31.493Z,9.40
2023-04-07T03:59:39.129Z,9.27
2023-04-07T04:01:45.237Z,10.93
2023-04-07T04:03:54.243Z,9.18
2023-04-07T04:06:04.922Z,10.05
2023-04-07T04:08:11.156Z,8.57
2023-04-07T04:10:19.003Z,8.65
2023-04-07T04:12:27.716Z,9.55
2023-04-07T04:14:44.961Z,9.38
2023-04-07T04:16:52.573Z,8.50
2023-04-07T04:19:20.524Z,8.68
2023-04-07T04:21:27.369Z,8.93
2023-04-07T04:23:32.448Z,7.93
2023-04-07T04:25:39.732Z,8.93
2023-04-07T04:27:47.036Z,9.15
2023-04-07T04:30:07.144Z,9.40
2023-04-07T04:32:38.624Z,9.38
2023-04-07T04:34:44.698Z,8.77
2023-04-07T04:36:51.427Z,9.15
2023-04-07T04:38:58.024Z,7.97
2023-04-07T04:41:03.089Z,9.10
2023-04-07T04:43:09.934Z,8.82
2023-04-07T04:45:20.496Z,9.10
2023-04-07T04:47:27.361Z,10.27
2023-04-07T04:49:32.564Z,9.18
2023-04-07T04:51:40.418Z,9.15
2023-04-07T04:53:52.170Z,11.13
2023-04-07T04:55:59.384Z,9.70
2023-04-07T04:58:23.980Z,9.80
2023-04-07T05:00:35.625Z,9.32
2023-04-07T05:02:43.976Z,10.25
2023-04-07T05:04:49.657Z,9.23
2023-04-07T05:07:01.852Z,9.85
2023-04-07T05:09:09.835Z,9.25
2023-04-07T05:11:21.566Z,9.73
2023-04-07T05:13:31.236Z,8.95
2023-04-07T05:15:43.708Z,9.02
2023-04-07T05:17:51.520Z,9.15
2023-04-07T05:20:01.851Z,9.57
2023-04-07T05:22:24.627Z,9.60
2023-04-07T05:24:31.995Z,9.68
2023-04-07T05:26:39.246Z,9.65
2023-04-07T05:28:44.703Z,9.52
2023-04-07T05:30:57.929Z,8.70
2023-04-07T05:33:07.905Z,9.63
2023-04-07T05:35:26.460Z,10.35
2023-04-07T05:37:34.689Z,10.40
2023-04-07T05:39:42.436Z,9.27
2023-04-07T05:41:51.139Z,10.55
2023-04-07T05:43:57.573Z,10.80
2023-04-07T05:46:08.101Z,10.50
2023-04-07T05:48:18.837Z,10.77
2023-04-07T05:50:26.058Z,10.82
2023-04-07T05:52:31.597Z,11.85
2023-04-07T05:54:47.324Z,11.77
2023-04-07T05:56:53.674Z,12.13
2023-04-07T05:59:02.036Z,14.05
2023-04-07T06:01:10.600Z,13.60
2023-04-07T06:03:15.693Z,13.63
2023-04-07T06:05:31.467Z,12.73
2023-04-07T06:07:36.631Z,14.50
2023-04-07T06:09:43.239Z,14.02
2023-04-07T06:11:48.345Z,15.55
2023-04-07T06:13:54.373Z,15.80
2023-04-07T06:15:59.989Z,15.35
2023-04-07T06:18:07.681Z,15.43
2023-04-07T06:20:14.347Z,15.18
2023-04-07T06:22:19.399Z,14.52
2023-04-07T06:24:25.694Z,15.95
2023-04-07T06:26:30.860Z,15.75
2023-04-07T06:28:36.276Z,15.88
2023-04-07T06:30:41.732Z,15.15
2023-04-07T06:32:49.913Z,15.15
2023-04-07T06:34:57.685Z,16.00
2023-04-07T06:37:03.948Z,15.32
2023-04-07T06:39:09.257Z,16.98
2023-04-07T06:41:17.216Z,16.00
2023-04-07T06:43:22.500Z,15.98
2023-04-07T06:45:33.491Z,16.50
2023-04-07T06:47:38.580Z,16.98
2023-04-07T06:49:44.201Z,16.40
2023-04-07T06:51:51.851Z,17.00
2023-04-07T06:53:57.114Z,14.95
2023-04-07T06:56:09.810Z,16.30
2023-04-07T06:58:15.166Z,15.95
2023-04-07T07:00:23.334Z,16.58
2023-04-07T07:02:28.526Z,15.02
2023-04-07T07:04:34.049Z,16.17
2023-04-07T07:06:39.544Z,16.38
2023-04-07T07:08:47.127Z,16.48
2023-04-07T07:10:52.751Z,14.80
2023-04-07T07:12:57.767Z,14.95
2023-04-07T07:15:03.506Z,15.73
2023-04-07T07:17:08.506Z,14.85
2023-04-07T07:19:14.602Z,15.63
2023-04-07T07:21:21.510Z,15.80
2023-04-07T07:23:26.511Z,15.30
2023-04-07T07:25:34.623Z,14.32
2023-04-07T07:27:39.707Z,14.43
2023-04-07T07:29:44.985Z,14.50
2023-04-07T07:31:50.618Z,14.23
2023-04-07T07:33:56.280Z,13.85
2023-04-07T07:36:01.811Z,13.75
2023-04-07T07:38:06.935Z,13.23
2023-04-07T07:40:12.936Z,13.93
2023-04-07T07:42:21.217Z,14.10
2023-04-07T07:44:26.297Z,13.10
2023-04-07T07:46:31.856Z,13.20
2023-04-07T07:48:36.932Z,13.00
2023-04-07T07:50:42.950Z,13.35
2023-04-07T07:52:48.023Z,13.45
2023-04-07T07:54:54.275Z,13.70
2023-04-07T07:57:00.273Z,13.18
2023-04-07T07:59:09.201Z,13.20
2023-04-07T08:01:14.232Z,14.00
2023-04-07T08:03:22.766Z,12.88
2023-04-07T08:05:28.157Z,13.13
2023-04-07T08:07:33.617Z,14.02
2023-04-07T08:09:38.600Z,13.90
2023-04-07T08:11:44.610Z,13.45
2023-04-07T08:13:49.912Z,13.27
2023-04-07T08:15:57.848Z,12.63
2023-04-07T08:18:04.899Z,13.30
2023-04-07T08:20:13.090Z,12.88
2023-04-07T08:22:20.018Z,13.10
2023-04-07T08:24:25.067Z,12.82
2023-04-07T08:26:30.503Z,12.35
2023-04-07T08:28:35.547Z,12.00
2023-04-07T08:30:40.829Z,12.43
2023-04-07T08:32:49.011Z,11.48
2023-04-07T08:34:54.090Z,12.50
2023-04-07T08:36:59.493Z,11.60
2023-04-07T08:39:05.855Z,12.30
2023-04-07T08:41:15.373Z,12.57
2023-04-07T08:43:23.509Z,12.70
2023-04-07T08:45:29.210Z,11.80
2023-04-07T08:47:37.483Z,12.07
2023-04-07T08:49:47.682Z,11.77
2023-04-07T08:51:55.665Z,11.85
2023-04-07T08:54:09.645Z,13.02
2023-04-07T08:56:15.869Z,12.48
2023-04-07T08:58:22.209Z,12.52
2023-04-07T09:00:27.630Z,11.77
2023-04-07T09:02:34.225Z,12.55
2023-04-07T09:04:39.481Z,13.27
2023-04-07T09:06:47.121Z,11.90
2023-04-07T09:08:52.374Z,12.25
2023-04-07T09:10:57.916Z,12.13
2023-04-07T09:13:03.263Z,13.63
2023-04-07T09:15:10.933Z,13.35
2023-04-07T09:17:16.536Z,13.98
2023-04-07T09:19:22.224Z,12.73
2023-04-07T09:21:27.338Z,13.10
2023-04-07T09:23:37.804Z,13.10
2023-04-07T09:25:42.833Z,12.10
2023-04-07T09:28:02.423Z,13.23
2023-04-07T09:30:15.908Z,12.40
2023-04-07T09:32:39.774Z,11.40
2023-04-07T09:34:45.299Z,11.13
2023-04-07T09:36:50.308Z,11.77
2023-04-07T09:38:58.151Z,12.45
2023-04-07T09:41:10.697Z,11.38
2023-04-07T09:43:20.353Z,11.75
2023-04-07T09:47:38.371Z,11.20
2023-04-07T09:49:54.684Z,11.75
2023-04-07T09:52:05.065Z,11.50
2023-04-07T09:54:12.865Z,11.27
2023-04-07T09:56:19.851Z,12.40
2023-04-07T09:58:24.943Z,13.68
2023-04-07T10:00:30.780Z,11.98
2023-04-07T10:02:36.295Z,11.95
2023-04-07T10:04:42.569Z,12.00
2023-04-07T10:06:48.825Z,11.32
2023-04-07T10:08:54.123Z,11.73
2023-04-07T10:11:02.893Z,11.80
2023-04-07T10:13:09.189Z,11.75
2023-04-07T10:15:17.146Z,12.43
2023-04-07T10:17:23.298Z,12.57
2023-04-07T10:19:32.643Z,11.20
2023-04-07T10:21:42.418Z,12.00
2023-04-07T10:23:57.064Z,11.82
2023-04-07T10:26:06.852Z,11.98
2023-04-07T10:28:14.700Z,12.60
2023-04-07T10:30:26.086Z,11.93
2023-04-07T10:32:31.719Z,13.02
2023-04-07T10:35:03.897Z,12.38
2023-04-07T10:37:18.006Z,12.20
2023-04-07T10:39:25.712Z,11.82
2023-04-07T10:41:42.158Z,12.27
2023-04-07T10:43:47.375Z,12.00
2023-04-07T10:46:02.303Z,13.15
2023-04-07T10:48:14.424Z,11.90
2023-04-07T10:50:24.990Z,12.68
2023-04-07T10:52:31.007Z,11.60
2023-04-07T10:54:36.514Z,12.35
2023-04-07T10:57:14.501Z,11.13
2023-04-07T10:59:27.912Z,11.23
2023-04-07T11:01:35.037Z,12.82
2023-04-07T11:03:42.487Z,12.05
2023-04-07T11:05:47.735Z,10.15
2023-04-07T11:08:06.064Z,9.73
2023-04-07T11:10:16.090Z,9.90
2023-04-07T11:12:31.415Z,10.63
2023-04-07T11:14:37.852Z,10.02
2023-04-07T11:16:46.110Z,8.60
2023-04-07T11:18:52.419Z,9.98
2023-04-07T11:20:59.669Z,8.73
2023-04-07T11:23:04.698Z,8.63
2023-04-07T11:25:27.854Z,8.60
2023-04-07T11:27:36.680Z,7.78
2023-04-07T11:29:43.842Z,8.65
2023-04-07T11:31:51.826Z,8.30
2023-04-07T11:33:59.074Z,8.77
2023-04-07T11:36:05.859Z,7.63
2023-04-07T11:38:11.410Z,7.88
2023-04-07T11:40:34.451Z,8.05
2023-04-07T11:42:46.788Z,9.27
2023-04-07T11:44:51.840Z,8.50
2023-04-07T11:46:58.841Z,8.30
2023-04-07T11:49:14.518Z,8.13
2023-04-07T11:51:20.924Z,8.13
2023-04-07T11:53:32.198Z,8.18
2023-04-07T11:55:37.356Z,7.80
2023-04-07T11:57:44.996Z,8.63
2023-04-07T11:59:49.980Z,8.27
2023-04-07T12:01:57.731Z,8.55
2023-04-07T12:04:05.183Z,8.48
2023-04-07T12:06:10.992Z,8.57
2023-04-07T12:08:17.685Z,8.60
2023-04-07T12:10:23.886Z,8.13
2023-04-07T12:12:30.663Z,8.55
2023-04-07T12:14:39.150Z,8.32
2023-04-07T12:16:44.178Z,8.20
2023-04-07T12:18:49.463Z,9.13
2023-04-07T12:20:54.488Z,8.48
2023-04-07T12:23:00.615Z,8.38
2023-04-07T12:25:05.629Z,8.90
2023-04-07T12:27:11.153Z,7.93
2023-04-07T12:29:16.370Z,8.52
2023-04-07T12:31:24.576Z,8.60
2023-04-07T12:33:29.746Z,8.35
2023-04-07T12:35:35.513Z,7.85
2023-04-07T12:37:40.555Z,6.68
2023-04-07T12:39:45.545Z,7.70
2023-04-07T12:41:53.348Z,7.47
2023-04-07T12:43:58.540Z,7.93
2023-04-07T12:46:03.567Z,7.93
2023-04-07T12:48:11.195Z,8.25
2023-04-07T12:50:16.232Z,7.63
2023-04-07T12:52:21.237Z,8.18
2023-04-07T12:54:26.239Z,7.97
2023-04-07T12:56:31.738Z,7.75
2023-04-07T12:58:36.860Z,7.55
2023-04-07T13:00:42.987Z,8.07
2023-04-07T13:02:48.477Z,7.57
2023-04-07T13:04:56.298Z,8.20
2023-04-07T13:07:03.190Z,7.10
2023-04-07T13:09:08.245Z,6.53
2023-04-07T13:11:13.285Z,5.50
2023-04-07T13:13:18.456Z,6.13
2023-04-07T13:15:23.550Z,6.35
2023-04-07T13:17:29.152Z,6.20
2023-04-07T13:19:35.557Z,5.70
2023-04-07T13:21:47.260Z,5.47
2023-04-07T13:23:53.486Z,4.50
2023-04-07T13:25:58.504Z,5.43
2023-04-07T13:28:03.581Z,4.57
2023-04-07T13:30:10.988Z,5.40
2023-04-07T13:32:17.119Z,3.90
2023-04-07T13:34:22.184Z,3.30
2023-04-07T13:36:28.872Z,3.30
2023-04-07T13:38:36.787Z,3.00
2023-04-07T13:40:41.947Z,2.90
2023-04-07T13:42:47.051Z,3.40
2023-04-07T13:44:54.573Z,3.53
2023-04-07T13:47:00.454Z,3.40
2023-04-07T13:49:06.453Z,3.33
2023-04-07T13:51:12.709Z,3.55
2023-04-07T13:53:19.219Z,2.97
2023-04-07T13:55:27.088Z,2.30
2023-04-07T13:57:32.103Z,1.55
2023-04-07T13:59:37.218Z,1.55
2023-04-07T14:01:42.471Z,1.23
2023-04-07T14:03:48.325Z,1.05
2023-04-07T14:05:53.625Z,1.00
2023-04-07T14:07:58.620Z,1.50
2023-04-07T14:10:03.636Z,1.25
2023-04-07T14:12:11.310Z,1.33
2023-04-07T14:14:16.401Z,2.15
2023-04-07T14:16:21.835Z,1.77
2023-04-07T14:18:28.158Z,2.28
2023-04-07T14:20:33.423Z,1.52
2023-04-07T14:22:38.544Z,1.98
2023-04-07T14:24:44.115Z,1.67
2023-04-07T14:26:51.226Z,1.70
2023-04-07T14:28:59.192Z,2.10
2023-04-07T14:31:04.283Z,2.08
2023-04-07T14:33:09.439Z,1.80
2023-04-07T14:35:14.595Z,2.13
2023-04-07T14:37:24.214Z,1.73
2023-04-07T14:39:29.594Z,2.10
2023-04-07T14:41:34.832Z,2.60
2023-04-07T14:43:39.896Z,1.98
2023-04-07T14:45:47.552Z,2.40
2023-04-07T14:47:52.899Z,2.80
2023-04-07T14:49:58.268Z,2.47
2023-04-07T14:52:03.659Z,2.08
2023-04-07T14:54:08.717Z,2.10
2023-04-07T14:56:13.768Z,2.75
2023-04-07T14:58:19.402Z,2.42
2023-04-07T15:00:25.453Z,3.40
2023-04-07T15:02:33.230Z,3.53
2023-04-07T15:04:38.773Z,4.30
2023-04-07T15:06:47.225Z,4.10
2023-04-07T15:08:52.601Z,3.83
2023-04-07T15:10:58.230Z,3.97
2023-04-07T15:13:03.410Z,4.10
2023-04-07T15:15:09.888Z,3.78
2023-04-07T15:17:14.944Z,4.60
2023-04-07T15:19:22.985Z,4.95
2023-04-07T15:21:28.821Z,4.97
2023-04-07T15:23:34.055Z,4.28
2023-04-07T15:25:39.131Z,4.13
2023-04-07T15:27:44.189Z,4.72
2023-04-07T15:29:49.163Z,4.03
2023-04-07T15:31:54.265Z,4.30
2023-04-07T15:33:59.316Z,4.03
2023-04-07T15:36:07.633Z,4.20
2023-04-07T15:38:13.782Z,4.43
2023-04-07T15:40:19.258Z,3.50
2023-04-07T15:42:24.259Z,4.18
2023-04-07T15:44:29.272Z,4.13
2023-04-07T15:46:34.733Z,3.53
2023-04-07T15:48:39.880Z,3.88
2023-04-07T15:50:45.004Z,3.97
2023-04-07T15:52:52.765Z,4.05
2023-04-07T15:54:58.824Z,4.10
2023-04-07T15:57:03.931Z,5.40
2023-04-07T15:59:09.148Z,7.35
2023-04-07T16:01:14.837Z,6.20
2023-04-07T16:03:20.253Z,5.22
2023-04-07T16:05:25.594Z,4.78
2023-04-07T16:07:30.767Z,4.55
2023-04-07T16:09:38.676Z,4.38
2023-04-07T16:11:43.685Z,5.00
2023-04-07T16:13:48.806Z,5.03
2023-04-07T16:15:57.763Z,5.18
2023-04-07T16:18:03.410Z,4.93
2023-04-07T16:20:14.648Z,4.38
2023-04-07T16:22:20.100Z,4.32
2023-04-07T16:24:25.257Z,5.38
2023-04-07T16:26:33.042Z,5.00
2023-04-07T16:28:39.287Z,6.28
2023-04-07T16:30:45.393Z,6.53
2023-04-07T16:32:50.917Z,5.72
2023-04-07T16:34:56.694Z,5.60
2023-04-07T16:37:01.885Z,5.75
2023-04-07T16:39:07.348Z,5.85
2023-04-07T16:41:12.337Z,5.50
2023-04-07T16:43:20.279Z,5.75
2023-04-07T16:45:25.276Z,5.35
2023-04-07T16:47:31.106Z,5.35
2023-04-07T16:49:36.181Z,5.80
2023-04-07T16:51:41.344Z,5.72
2023-04-07T16:53:46.716Z,5.82
2023-04-07T16:55:51.961Z,5.50
2023-04-07T16:57:56.988Z,6.13
2023-04-07T17:00:04.725Z,6.10
2023-04-07T17:02:11.923Z,5.07
2023-04-07T17:04:17.488Z,5.05
2023-04-07T17:06:23.282Z,5.13
2023-04-07T17:08:28.390Z,5.43
2023-04-07T17:10:34.373Z,5.70
2023-04-07T17:12:40.094Z,5.95
2023-04-07T17:14:45.915Z,4.90
2023-04-07T17:16:53.540Z,5.00
2023-04-07T17:18:58.546Z,5.57
2023-04-07T17:21:03.546Z,5.22
2023-04-07T17:23:09.425Z,5.78
2023-04-07T17:25:14.624Z,5.43
2023-04-07T17:27:20.614Z,5.75
2023-04-07T17:29:29.158Z,6.25
2023-04-07T17:31:35.964Z,6.22
2023-04-07T17:33:43.644Z,6.03
2023-04-07T17:35:51.030Z,5.82
2023-04-07T17:37:56.698Z,6.78
2023-04-07T17:40:03.718Z,5.65
2023-04-07T17:42:11.216Z,6.30
2023-04-07T17:44:18.329Z,5.93
2023-04-07T17:46:26.045Z,6.10
2023-04-07T17:48:32.329Z,6.78
2023-04-07T17:50:40.472Z,6.00
2023-04-07T17:52:45.730Z,7.13
2023-04-07T17:54:51.079Z,5.22
2023-04-07T17:56:56.578Z,6.47
2023-04-07T17:59:01.760Z,6.10
2023-04-07T18:01:07.101Z,5.80
2023-04-07T18:03:14.647Z,5.82
2023-04-07T18:05:20.927Z,7.32
2023-04-07T18:07:29.421Z,5.60
2023-04-07T18:09:34.642Z,5.85
2023-04-07T18:11:40.291Z,5.70
2023-04-07T18:13:45.321Z,6.20
2023-04-07T18:15:51.190Z,6.30
2023-04-07T18:17:56.331Z,6.30
2023-04-07T18:20:02.242Z,6.95
2023-04-07T18:22:10.144Z,6.65
2023-04-07T18:24:17.833Z,5.95
2023-04-07T18:26:22.821Z,7.28
2023-04-07T18:28:27.931Z,7.05
2023-04-07T18:30:33.128Z,6.47
2023-04-07T18:32:38.160Z,7.13
2023-04-07T18:34:43.666Z,6.43
2023-04-07T18:36:49.720Z,7.53
2023-04-07T18:38:54.797Z,6.95
2023-04-07T18:41:02.486Z,8.02
2023-04-07T18:43:07.537Z,7.35
2023-04-07T18:45:13.483Z,7.60
2023-04-07T18:47:19.044Z,7.30
2023-04-07T18:49:24.750Z,6.80
2023-04-07T18:51:31.875Z,7.70
2023-04-07T18:53:36.882Z,7.28
2023-04-07T18:55:41.900Z,7.60
2023-04-07T18:57:49.956Z,7.90
2023-04-07T18:59:55.467Z,7.40
2023-04-07T19:02:01.057Z,9.18
2023-04-07T19:04:06.300Z,9.45
2023-04-07T19:06:12.331Z,8.75
2023-04-07T19:08:18.165Z,8.88
2023-04-07T19:10:23.714Z,7.50
2023-04-07T19:12:28.931Z,8.25
2023-04-07T19:14:36.510Z,8.02
2023-04-07T19:16:41.957Z,8.73
2023-04-07T19:18:47.619Z,9.07
2023-04-07T19:20:52.620Z,9.32
2023-04-07T19:22:57.602Z,9.00
2023-04-07T19:25:02.625Z,10.00
2023-04-07T19:27:08.163Z,9.10
2023-04-07T19:29:13.797Z,8.88
2023-04-07T19:31:21.402Z,8.88
2023-04-07T19:33:26.676Z,7.97
2023-04-07T19:35:31.760Z,8.32
2023-04-07T19:37:38.001Z,6.93
2023-04-07T19:39:52.194Z,8.57
2023-04-07T19:44:18.616Z,9.05
2023-04-07T19:46:26.337Z,7.50
2023-04-07T19:48:32.905Z,7.95
2023-04-07T19:50:43.716Z,7.53
2023-04-07T19:52:50.466Z,8.55
2023-04-07T19:54:56.069Z,8.07
2023-04-07T19:57:01.839Z,7.50
2023-04-07T19:59:07.363Z,7.95
2023-04-07T20:01:19.588Z,7.63
2023-04-07T20:03:27.349Z,5.40
2023-04-07T20:05:32.463Z,7.75
2023-04-07T20:07:37.508Z,7.70
2023-04-07T20:09:42.740Z,7.78
2023-04-07T20:11:48.281Z,9.05
2023-04-07T20:13:53.497Z,8.27
2023-04-07T20:15:58.648Z,7.72
2023-04-07T20:18:03.900Z,8.63
2023-04-07T20:20:13.462Z,8.00
2023-04-07T20:22:18.616Z,7.25
2023-04-07T20:24:23.884Z,7.82
2023-04-07T20:26:28.936Z,7.05
2023-04-07T20:28:34.208Z,6.72
2023-04-07T20:30:39.232Z,7.68
2023-04-07T20:32:46.089Z,6.97
2023-04-07T20:34:52.283Z,7.20
2023-04-07T20:37:01.689Z,7.10
2023-04-07T20:39:07.116Z,7.40
2023-04-07T20:41:16.729Z,7.15
2023-04-07T20:43:23.980Z,7.85
2023-04-07T20:45:29.189Z,8.15
2023-04-07T20:47:36.722Z,7.22
2023-04-07T20:49:44.389Z,8.82
2023-04-07T20:51:49.427Z,9.48
2023-04-07T20:53:57.211Z,10.50
2023-04-07T20:56:03.105Z,9.50
2023-04-07T20:58:08.312Z,8.75
2023-04-07T21:00:14.572Z,9.23
2023-04-07T21:02:19.638Z,8.50
2023-04-07T21:04:25.098Z,9.50
2023-04-07T21:06:30.171Z,7.78
2023-04-07T21:08:35.349Z,8.55
2023-04-07T21:10:42.915Z,8.02
2023-04-07T21:12:47.927Z,8.18
2023-04-07T21:14:53.430Z,8.20
2023-04-07T21:16:58.450Z,8.30
2023-04-07T21:19:03.945Z,8.48
2023-04-07T21:21:09.177Z,9.25
2023-04-07T21:23:14.204Z,8.80
2023-04-07T21:25:19.942Z,8.13
2023-04-07T21:27:27.659Z,8.45
2023-04-07T21:29:33.686Z,7.60
2023-04-07T21:31:39.270Z,7.35
2023-04-07T21:33:44.452Z,6.95
2023-04-07T21:35:49.851Z,8.23
2023-04-07T21:37:54.946Z,8.95
2023-04-07T21:40:00.516Z,8.95
2023-04-07T21:42:06.049Z,8.63
2023-04-07T21:44:20.166Z,8.38
2023-04-07T21:46:25.202Z,8.20
2023-04-07T21:48:30.466Z,8.68
2023-04-07T21:50:35.691Z,9.85
2023-04-07T21:52:42.593Z,9.30
2023-04-07T21:54:47.961Z,10.57
2023-04-07T21:56:52.949Z,10.10
2023-04-07T21:58:58.457Z,9.52
2023-04-07T22:01:07.171Z,9.68
2023-04-07T22:03:12.677Z,10.52
2023-04-07T22:05:18.444Z,13.48
2023-04-07T22:07:23.456Z,13.43
2023-04-07T22:09:29.908Z,11.77
2023-04-07T22:11:34.960Z,12.57
2023-04-07T22:13:40.224Z,15.52
2023-04-07T22:15:45.397Z,16.15
2023-04-07T22:17:53.381Z,15.05
2023-04-07T22:19:58.773Z,15.68
2023-04-07T22:22:03.774Z,14.35
2023-04-07T22:24:09.082Z,14.70
2023-04-07T22:26:14.500Z,18.63
2023-04-07T22:28:19.807Z,16.20
2023-04-07T22:30:25.900Z,16.25
2023-04-07T22:32:31.092Z,14.07
2023-04-07T22:34:38.944Z,12.20
2023-04-07T22:36:44.664Z,10.18
2023-04-07T22:38:49.897Z,7.38
2023-04-07T22:40:55.816Z,7.10
2023-04-07T22:43:01.468Z,7.65
2023-04-07T22:45:08.634Z,6.43
2023-04-07T22:47:13.651Z,6.47
2023-04-07T22:49:18.656Z,7.95
2023-04-07T22:51:27.470Z,7.25
2023-04-07T22:53:32.502Z,7.05
2023-04-07T22:55:38.410Z,7.20
2023-04-07T22:57:43.410Z,6.80
2023-04-07T22:59:48.398Z,6.68
2023-04-07T23:01:56.312Z,8.00
2023-04-07T23:04:02.848Z,7.38
2023-04-07T23:06:08.433Z,7.82
2023-04-07T23:08:16.170Z,8.20
2023-04-07T23:10:21.837Z,6.75
2023-04-07T23:12:27.062Z,7.97
2023-04-07T23:14:32.056Z,8.20
2023-04-07T23:16:37.890Z,8.57
2023-04-07T23:18:43.328Z,9.20
2023-04-07T23:20:54.363Z,9.10
2023-04-07T23:22:59.346Z,8.60
2023-04-07T23:25:08.407Z,10.02
2023-04-07T23:27:13.413Z,8.98
2023-04-07T23:29:18.419Z,10.23
2023-04-07T23:31:24.056Z,9.13
2023-04-07T23:33:29.062Z,9.50
2023-04-07T23:35:34.369Z,10.18
2023-04-07T23:37:39.882Z,9.40
2023-04-07T23:39:44.898Z,10.25
2023-04-07T23:41:52.738Z,9.45
2023-04-07T23:43:57.768Z,9.68
2023-04-07T23:46:03.369Z,11.02
2023-04-07T23:48:09.676Z,10.35
2023-04-07T23:50:14.925Z,10.80
2023-04-07T23:52:21.867Z,10.32
2023-04-07T23:54:27.294Z,10.55
2023-04-07T23:56:32.550Z,10.65
2023-04-07T23:58:40.674Z,10.38
